sensor_id;sensor_type;location;lat;lon;timestamp;pressure;altitude;pressure_sealevel;temperature;humidity
46129;BME280;31860;45.186;5.790;2023-01-31T00:01:19;100150.94;;;5.88;68.46
46129;BME280;31860;45.186;5.790;2023-01-31T00:03:45;100152.69;;;5.89;69.86
46129;BME280;31860;45.186;5.790;2023-01-31T00:06:20;100148.22;;;5.85;70.90
46129;BME280;31860;45.186;5.790;2023-01-31T00:08:47;100149.06;;;5.84;70.20
46129;BME280;31860;45.186;5.790;2023-01-31T00:11:14;100141.31;;;5.85;70.29
46129;BME280;31860;45.186;5.790;2023-01-31T00:13:40;100138.78;;;5.87;69.94
46129;BME280;31860;45.186;5.790;2023-01-31T00:16:06;100133.50;;;5.84;70.08
46129;BME280;31860;45.186;5.790;2023-01-31T00:18:32;100126.47;;;5.81;70.59
46129;BME280;31860;45.186;5.790;2023-01-31T00:21:06;100129.91;;;5.80;71.16
46129;BME280;31860;45.186;5.790;2023-01-31T00:23:32;100130.72;;;5.79;71.54
46129;BME280;31860;45.186;5.790;2023-01-31T00:26:18;100135.91;;;5.79;72.86
46129;BME280;31860;45.186;5.790;2023-01-31T00:28:46;100127.97;;;5.74;72.27
46129;BME280;31860;45.186;5.790;2023-01-31T00:31:13;100126.31;;;5.76;71.56
46129;BME280;31860;45.186;5.790;2023-01-31T00:33:40;100134.97;;;5.77;70.87
46129;BME280;31860;45.186;5.790;2023-01-31T00:36:12;100133.25;;;5.77;70.87
46129;BME280;31860;45.186;5.790;2023-01-31T00:38:38;100126.38;;;5.78;71.16
46129;BME280;31860;45.186;5.790;2023-01-31T00:41:03;100128.91;;;5.76;71.67
46129;BME280;31860;45.186;5.790;2023-01-31T00:43:30;100133.97;;;5.73;70.91
46129;BME280;31860;45.186;5.790;2023-01-31T00:45:56;100134.88;;;5.74;71.09
46129;BME280;31860;45.186;5.790;2023-01-31T00:48:22;100129.63;;;5.72;71.43
46129;BME280;31860;45.186;5.790;2023-01-31T00:50:48;100120.97;;;5.72;71.48
46129;BME280;31860;45.186;5.790;2023-01-31T00:53:13;100123.59;;;5.73;71.41
46129;BME280;31860;45.186;5.790;2023-01-31T00:55:39;100121.09;;;5.75;71.21
46129;BME280;31860;45.186;5.790;2023-01-31T00:58:04;100116.72;;;5.74;70.95
46129;BME280;31860;45.186;5.790;2023-01-31T01:00:30;100121.91;;;5.74;71.30
46129;BME280;31860;45.186;5.790;2023-01-31T01:02:55;100130.56;;;5.74;71.41
46129;BME280;31860;45.186;5.790;2023-01-31T01:05:20;100128.88;;;5.75;70.84
46129;BME280;31860;45.186;5.790;2023-01-31T01:07:46;100115.97;;;5.76;70.68
46129;BME280;31860;45.186;5.790;2023-01-31T01:10:12;100115.06;;;5.76;70.96
46129;BME280;31860;45.186;5.790;2023-01-31T01:12:37;100129.72;;;5.75;71.13
46129;BME280;31860;45.186;5.790;2023-01-31T01:15:03;100128.88;;;5.75;72.98
46129;BME280;31860;45.186;5.790;2023-01-31T01:17:29;100130.63;;;5.76;73.92
46129;BME280;31860;45.186;5.790;2023-01-31T01:19:54;100122.81;;;5.74;73.60
46129;BME280;31860;45.186;5.790;2023-01-31T01:22:19;100135.72;;;5.73;72.36
46129;BME280;31860;45.186;5.790;2023-01-31T01:24:45;100141.66;;;5.70;73.56
46129;BME280;31860;45.186;5.790;2023-01-31T01:27:11;100141.56;;;5.67;75.03
46129;BME280;31860;45.186;5.790;2023-01-31T01:29:38;100144.88;;;5.63;76.11
46129;BME280;31860;45.186;5.790;2023-01-31T01:32:04;100151.66;;;5.60;76.07
46129;BME280;31860;45.186;5.790;2023-01-31T01:34:30;100151.59;;;5.58;75.71
46129;BME280;31860;45.186;5.790;2023-01-31T01:36:56;100155.84;;;5.56;76.20
46129;BME280;31860;45.186;5.790;2023-01-31T01:39:21;100145.47;;;5.56;75.96
46129;BME280;31860;45.186;5.790;2023-01-31T01:41:47;100154.09;;;5.55;75.35
46129;BME280;31860;45.186;5.790;2023-01-31T01:44:51;100147.97;;;5.53;75.96
46129;BME280;31860;45.186;5.790;2023-01-31T01:50:24;100164.13;;;5.46;76.70
46129;BME280;31860;45.186;5.790;2023-01-31T01:53:19;100168.31;;;5.43;78.11
46129;BME280;31860;45.186;5.790;2023-01-31T01:55:54;100163.00;;;5.40;77.62
46129;BME280;31860;45.186;5.790;2023-01-31T02:00:53;100171.84;;;5.45;77.63
46129;BME280;31860;45.186;5.790;2023-01-31T02:03:19;100179.50;;;5.42;78.73
46129;BME280;31860;45.186;5.790;2023-01-31T02:05:48;100175.91;;;5.38;79.36
46129;BME280;31860;45.186;5.790;2023-01-31T02:08:18;100183.69;;;5.38;79.16
46129;BME280;31860;45.186;5.790;2023-01-31T02:11:04;100176.81;;;5.39;78.34
46129;BME280;31860;45.186;5.790;2023-01-31T02:13:32;100180.25;;;5.39;77.35
46129;BME280;31860;45.186;5.790;2023-01-31T02:15:58;100186.38;;;5.41;77.03
46129;BME280;31860;45.186;5.790;2023-01-31T02:18:24;100193.34;;;5.42;76.18
46129;BME280;31860;45.186;5.790;2023-01-31T02:21:45;100194.22;;;5.43;76.07
46129;BME280;31860;45.186;5.790;2023-01-31T02:26:50;100197.53;;;5.39;75.96
46129;BME280;31860;45.186;5.790;2023-01-31T02:29:46;100192.16;;;5.34;76.53
46129;BME280;31860;45.186;5.790;2023-01-31T02:38:30;100191.94;;;5.28;76.68
46129;BME280;31860;45.186;5.790;2023-01-31T02:41:20;100201.44;;;5.28;76.14
46129;BME280;31860;45.186;5.790;2023-01-31T02:43:59;100205.78;;;5.29;75.64
46129;BME280;31860;45.186;5.790;2023-01-31T02:49:39;100201.47;;;5.29;75.20
46129;BME280;31860;45.186;5.790;2023-01-31T02:52:13;100204.84;;;5.27;74.72
46129;BME280;31860;45.186;5.790;2023-01-31T02:54:52;100211.78;;;5.28;74.71
46129;BME280;31860;45.186;5.790;2023-01-31T02:57:38;100217.69;;;5.24;75.49
46129;BME280;31860;45.186;5.790;2023-01-31T03:00:06;100225.50;;;5.25;74.60
46129;BME280;31860;45.186;5.790;2023-01-31T03:02:32;100223.09;;;5.30;74.37
46129;BME280;31860;45.186;5.790;2023-01-31T03:04:58;100226.59;;;5.32;74.27
46129;BME280;31860;45.186;5.790;2023-01-31T03:07:25;100239.44;;;5.29;74.17
46129;BME280;31860;45.186;5.790;2023-01-31T03:10:15;100240.34;;;5.29;74.11
46129;BME280;31860;45.186;5.790;2023-01-31T03:18:07;100248.84;;;5.27;75.13
46129;BME280;31860;45.186;5.790;2023-01-31T03:20:40;100259.97;;;5.24;74.11
46129;BME280;31860;45.186;5.790;2023-01-31T03:23:19;100257.28;;;5.21;74.22
46129;BME280;31860;45.186;5.790;2023-01-31T03:25:47;100258.22;;;5.23;74.27
46129;BME280;31860;45.186;5.790;2023-01-31T03:28:20;100262.66;;;5.26;74.60
46129;BME280;31860;45.186;5.790;2023-01-31T03:30:51;100271.34;;;5.28;73.72
46129;BME280;31860;45.186;5.790;2023-01-31T03:33:24;100262.69;;;5.27;74.20
46129;BME280;31860;45.186;5.790;2023-01-31T03:36:26;100267.63;;;5.21;74.60
46129;BME280;31860;45.186;5.790;2023-01-31T03:39:23;100270.13;;;5.18;74.90
46129;BME280;31860;45.186;5.790;2023-01-31T03:47:01;100270.81;;;5.14;74.95
46129;BME280;31860;45.186;5.790;2023-01-31T03:49:28;100273.41;;;5.14;74.42
46129;BME280;31860;45.186;5.790;2023-01-31T03:52:01;100266.53;;;5.15;74.94
46129;BME280;31860;45.186;5.790;2023-01-31T03:54:31;100271.63;;;5.13;74.94
46129;BME280;31860;45.186;5.790;2023-01-31T03:57:06;100281.13;;;5.13;74.94
46129;BME280;31860;45.186;5.790;2023-01-31T03:59:37;100270.69;;;5.11;74.69
46129;BME280;31860;45.186;5.790;2023-01-31T04:02:07;100276.75;;;5.12;74.65
46129;BME280;31860;45.186;5.790;2023-01-31T04:04:57;100280.22;;;5.12;74.84
46129;BME280;31860;45.186;5.790;2023-01-31T04:07:25;100279.28;;;5.10;74.19
46129;BME280;31860;45.186;5.790;2023-01-31T04:09:50;100296.66;;;5.13;74.62
46129;BME280;31860;45.186;5.790;2023-01-31T04:12:15;100299.09;;;5.10;74.74
46129;BME280;31860;45.186;5.790;2023-01-31T04:14:41;100295.63;;;5.09;74.26
46129;BME280;31860;45.186;5.790;2023-01-31T04:17:07;100300.94;;;5.12;74.21
46129;BME280;31860;45.186;5.790;2023-01-31T04:19:32;100307.88;;;5.13;74.23
46129;BME280;31860;45.186;5.790;2023-01-31T04:21:58;100309.59;;;5.13;74.48
46129;BME280;31860;45.186;5.790;2023-01-31T04:24:24;100310.47;;;5.13;73.88
46129;BME280;31860;45.186;5.790;2023-01-31T04:26:49;100318.31;;;5.15;74.27
46129;BME280;31860;45.186;5.790;2023-01-31T04:29:15;100318.19;;;5.12;74.14
46129;BME280;31860;45.186;5.790;2023-01-31T04:31:40;100326.00;;;5.13;73.95
46129;BME280;31860;45.186;5.790;2023-01-31T04:34:06;100321.59;;;5.11;74.06
46129;BME280;31860;45.186;5.790;2023-01-31T04:36:32;100325.84;;;5.09;74.21
46129;BME280;31860;45.186;5.790;2023-01-31T04:38:57;100326.69;;;5.09;74.61
46129;BME280;31860;45.186;5.790;2023-01-31T04:41:25;100328.47;;;5.10;74.71
46129;BME280;31860;45.186;5.790;2023-01-31T04:43:50;100334.47;;;5.09;74.88
46129;BME280;31860;45.186;5.790;2023-01-31T04:46:15;100334.41;;;5.08;75.34
46129;BME280;31860;45.186;5.790;2023-01-31T04:48:41;100332.81;;;5.11;75.61
46129;BME280;31860;45.186;5.790;2023-01-31T04:51:06;100338.09;;;5.13;75.76
46129;BME280;31860;45.186;5.790;2023-01-31T04:53:32;100332.97;;;5.14;76.00
46129;BME280;31860;45.186;5.790;2023-01-31T04:55:57;100343.31;;;5.14;76.43
46129;BME280;31860;45.186;5.790;2023-01-31T04:58:22;100338.94;;;5.13;77.10
46129;BME280;31860;45.186;5.790;2023-01-31T05:00:48;100332.91;;;5.13;77.92
46129;BME280;31860;45.186;5.790;2023-01-31T05:03:13;100337.13;;;5.11;77.53
46129;BME280;31860;45.186;5.790;2023-01-31T05:05:39;100346.47;;;5.07;78.68
46129;BME280;31860;45.186;5.790;2023-01-31T05:08:04;100340.44;;;5.07;79.25
46129;BME280;31860;45.186;5.790;2023-01-31T05:10:30;100350.63;;;5.04;79.74
46129;BME280;31860;45.186;5.790;2023-01-31T05:12:56;100345.41;;;5.02;80.39
46129;BME280;31860;45.186;5.790;2023-01-31T05:15:22;100340.97;;;5.00;80.68
46129;BME280;31860;45.186;5.790;2023-01-31T05:17:54;100348.69;;;4.98;80.71
46129;BME280;31860;45.186;5.790;2023-01-31T05:20:30;100354.81;;;5.00;80.99
46129;BME280;31860;45.186;5.790;2023-01-31T05:22:57;100347.94;;;5.01;80.31
46129;BME280;31860;45.186;5.790;2023-01-31T05:25:23;100348.88;;;5.03;80.43
46129;BME280;31860;45.186;5.790;2023-01-31T05:27:49;100348.94;;;5.04;80.67
46129;BME280;31860;45.186;5.790;2023-01-31T05:30:14;100345.56;;;5.05;80.17
46129;BME280;31860;45.186;5.790;2023-01-31T05:32:40;100356.72;;;5.04;80.20
46129;BME280;31860;45.186;5.790;2023-01-31T05:35:06;100355.91;;;5.05;79.99
46129;BME280;31860;45.186;5.790;2023-01-31T05:37:31;100360.13;;;5.03;79.92
46129;BME280;31860;45.186;5.790;2023-01-31T05:39:57;100365.22;;;5.02;79.88
46129;BME280;31860;45.186;5.790;2023-01-31T05:42:22;100371.34;;;5.04;79.35
46129;BME280;31860;45.186;5.790;2023-01-31T05:44:47;100367.13;;;5.06;78.70
46129;BME280;31860;45.186;5.790;2023-01-31T05:47:13;100365.53;;;5.09;78.42
46129;BME280;31860;45.186;5.790;2023-01-31T05:49:38;100371.53;;;5.08;78.26
46129;BME280;31860;45.186;5.790;2023-01-31T05:52:04;100376.78;;;5.10;78.06
46129;BME280;31860;45.186;5.790;2023-01-31T05:54:29;100386.34;;;5.11;77.83
46129;BME280;31860;45.186;5.790;2023-01-31T05:56:54;100394.16;;;5.12;77.98
46129;BME280;31860;45.186;5.790;2023-01-31T05:59:20;100389.94;;;5.14;77.77
46129;BME280;31860;45.186;5.790;2023-01-31T06:01:45;100389.16;;;5.17;77.36
46129;BME280;31860;45.186;5.790;2023-01-31T06:04:10;100396.91;;;5.17;76.65
46129;BME280;31860;45.186;5.790;2023-01-31T06:06:36;100408.16;;;5.17;76.87
46129;BME280;31860;45.186;5.790;2023-01-31T06:09:01;100391.72;;;5.17;76.32
46129;BME280;31860;45.186;5.790;2023-01-31T06:11:27;100398.69;;;5.18;76.83
46129;BME280;31860;45.186;5.790;2023-01-31T06:13:52;100403.94;;;5.19;76.31
46129;BME280;31860;45.186;5.790;2023-01-31T06:16:21;100411.69;;;5.19;76.51
46129;BME280;31860;45.186;5.790;2023-01-31T06:18:47;100402.97;;;5.17;77.09
46129;BME280;31860;45.186;5.790;2023-01-31T06:21:12;100402.88;;;5.14;77.05
46129;BME280;31860;45.186;5.790;2023-01-31T06:23:38;100401.97;;;5.14;76.84
46129;BME280;31860;45.186;5.790;2023-01-31T06:26:03;100393.31;;;5.13;76.78
46129;BME280;31860;45.186;5.790;2023-01-31T06:28:29;100395.84;;;5.12;77.52
46129;BME280;31860;45.186;5.790;2023-01-31T06:30:54;100399.34;;;5.12;77.66
46129;BME280;31860;45.186;5.790;2023-01-31T06:33:20;100399.38;;;5.14;77.61
46129;BME280;31860;45.186;5.790;2023-01-31T06:35:45;100389.78;;;5.11;77.96
46129;BME280;31860;45.186;5.790;2023-01-31T06:38:10;100402.66;;;5.10;78.41
46129;BME280;31860;45.186;5.790;2023-01-31T06:40:40;100406.97;;;5.09;78.88
46129;BME280;31860;45.186;5.790;2023-01-31T06:43:06;100406.91;;;5.08;79.45
46129;BME280;31860;45.186;5.790;2023-01-31T06:45:31;100416.34;;;5.07;79.87
46129;BME280;31860;45.186;5.790;2023-01-31T06:47:57;100408.44;;;5.03;80.17
46129;BME280;31860;45.186;5.790;2023-01-31T06:50:22;100416.88;;;4.99;80.43
46129;BME280;31860;45.186;5.790;2023-01-31T06:52:48;100417.72;;;4.98;80.27
46129;BME280;31860;45.186;5.790;2023-01-31T06:55:13;100429.00;;;5.00;80.53
46129;BME280;31860;45.186;5.790;2023-01-31T06:57:46;100440.19;;;4.99;79.92
46129;BME280;31860;45.186;5.790;2023-01-31T07:00:12;100437.53;;;4.97;79.90
46129;BME280;31860;45.186;5.790;2023-01-31T07:02:38;100452.22;;;4.98;79.44
46129;BME280;31860;45.186;5.790;2023-01-31T07:05:03;100445.31;;;4.97;79.52
46129;BME280;31860;45.186;5.790;2023-01-31T07:07:29;100449.63;;;4.98;80.05
46129;BME280;31860;45.186;5.790;2023-01-31T07:09:54;100453.97;;;4.98;79.93
46129;BME280;31860;45.186;5.790;2023-01-31T07:12:20;100453.75;;;4.93;81.07
46129;BME280;31860;45.186;5.790;2023-01-31T07:14:46;100459.81;;;4.94;80.82
46129;BME280;31860;45.186;5.790;2023-01-31T07:17:11;100461.47;;;4.92;80.94
46129;BME280;31860;45.186;5.790;2023-01-31T07:19:37;100461.50;;;4.93;81.75
46129;BME280;31860;45.186;5.790;2023-01-31T07:22:04;100463.22;;;4.93;81.68
46129;BME280;31860;45.186;5.790;2023-01-31T07:24:29;100470.19;;;4.94;80.86
46129;BME280;31860;45.186;5.790;2023-01-31T07:26:55;100472.75;;;4.94;81.36
46129;BME280;31860;45.186;5.790;2023-01-31T07:29:20;100469.22;;;4.92;82.22
46129;BME280;31860;45.186;5.790;2023-01-31T07:31:46;100478.81;;;4.94;82.29
46129;BME280;31860;45.186;5.790;2023-01-31T07:34:11;100481.31;;;4.93;82.88
46129;BME280;31860;45.186;5.790;2023-01-31T07:36:37;100479.56;;;4.92;83.40
46129;BME280;31860;45.186;5.790;2023-01-31T07:39:02;100488.19;;;4.92;84.09
46129;BME280;31860;45.186;5.790;2023-01-31T07:41:28;100488.28;;;4.94;84.36
46129;BME280;31860;45.186;5.790;2023-01-31T07:43:53;100490.94;;;4.95;83.69
46129;BME280;31860;45.186;5.790;2023-01-31T07:46:19;100492.84;;;4.99;83.30
46129;BME280;31860;45.186;5.790;2023-01-31T07:48:44;100500.78;;;5.04;83.32
46129;BME280;31860;45.186;5.790;2023-01-31T07:51:10;100501.75;;;5.06;82.53
46129;BME280;31860;45.186;5.790;2023-01-31T07:53:37;100500.09;;;5.08;82.47
46129;BME280;31860;45.186;5.790;2023-01-31T07:56:13;100502.00;;;5.12;81.35
46129;BME280;31860;45.186;5.790;2023-01-31T07:58:40;100503.84;;;5.14;80.68
46129;BME280;31860;45.186;5.790;2023-01-31T08:01:06;100507.47;;;5.18;79.90
46129;BME280;31860;45.186;5.790;2023-01-31T08:03:50;100516.19;;;5.20;79.70
46129;BME280;31860;45.186;5.790;2023-01-31T08:06:16;100518.06;;;5.24;79.17
46129;BME280;31860;45.186;5.790;2023-01-31T08:08:43;100513.06;;;5.28;78.75
46129;BME280;31860;45.186;5.790;2023-01-31T08:11:09;100515.75;;;5.30;78.58
46129;BME280;31860;45.186;5.790;2023-01-31T08:13:35;100523.63;;;5.33;78.26
46129;BME280;31860;45.186;5.790;2023-01-31T08:16:01;100534.06;;;5.34;79.52
46129;BME280;31860;45.186;5.790;2023-01-31T08:18:27;100532.31;;;5.33;81.84
46129;BME280;31860;45.186;5.790;2023-01-31T08:20:53;100531.47;;;5.34;82.81
46129;BME280;31860;45.186;5.790;2023-01-31T08:23:20;100539.28;;;5.36;83.07
46129;BME280;31860;45.186;5.790;2023-01-31T08:25:45;100540.25;;;5.38;83.39
46129;BME280;31860;45.186;5.790;2023-01-31T08:28:11;100536.03;;;5.40;83.33
46129;BME280;31860;45.186;5.790;2023-01-31T08:30:43;100540.41;;;5.41;82.82
46129;BME280;31860;45.186;5.790;2023-01-31T08:33:10;100538.88;;;5.46;82.48
46129;BME280;31860;45.186;5.790;2023-01-31T08:35:36;100548.53;;;5.50;80.72
46129;BME280;31860;45.186;5.790;2023-01-31T08:38:02;100550.38;;;5.52;79.65
46129;BME280;31860;45.186;5.790;2023-01-31T08:40:28;100552.19;;;5.55;79.50
46129;BME280;31860;45.186;5.790;2023-01-31T08:42:58;100546.22;;;5.56;77.69
46129;BME280;31860;45.186;5.790;2023-01-31T08:45:25;100557.66;;;5.61;76.99
46129;BME280;31860;45.186;5.790;2023-01-31T08:47:58;100550.06;;;5.65;76.51
46129;BME280;31860;45.186;5.790;2023-01-31T08:50:26;100551.94;;;5.69;76.23
46129;BME280;31860;45.186;5.790;2023-01-31T08:52:57;100556.44;;;5.73;75.66
46129;BME280;31860;45.186;5.790;2023-01-31T08:55:23;100554.03;;;5.78;75.22
46129;BME280;31860;45.186;5.790;2023-01-31T08:57:49;100562.75;;;5.80;74.44
46129;BME280;31860;45.186;5.790;2023-01-31T09:00:16;100563.72;;;5.82;73.81
46129;BME280;31860;45.186;5.790;2023-01-31T09:02:42;100568.25;;;5.86;73.20
46129;BME280;31860;45.186;5.790;2023-01-31T09:05:08;100566.72;;;5.91;72.11
46129;BME280;31860;45.186;5.790;2023-01-31T09:07:34;100560.78;;;5.94;71.49
46129;BME280;31860;45.186;5.790;2023-01-31T09:09:59;100567.84;;;5.98;71.19
46129;BME280;31860;45.186;5.790;2023-01-31T09:12:25;100576.69;;;6.03;70.51
46129;BME280;31860;45.186;5.790;2023-01-31T09:14:51;100575.84;;;6.04;70.89
46129;BME280;31860;45.186;5.790;2023-01-31T09:17:17;100572.56;;;6.08;70.83
46129;BME280;31860;45.186;5.790;2023-01-31T09:19:42;100581.34;;;6.11;71.53
46129;BME280;31860;45.186;5.790;2023-01-31T09:22:08;100578.06;;;6.15;71.95
46129;BME280;31860;45.186;5.790;2023-01-31T09:24:34;100581.75;;;6.20;71.15
46129;BME280;31860;45.186;5.790;2023-01-31T09:27:00;100582.75;;;6.24;71.14
46129;BME280;31860;45.186;5.790;2023-01-31T09:29:25;100584.53;;;6.26;69.84
46129;BME280;31860;45.186;5.790;2023-01-31T09:31:53;100591.53;;;6.27;69.79
46129;BME280;31860;45.186;5.790;2023-01-31T09:34:19;100590.75;;;6.30;69.32
46129;BME280;31860;45.186;5.790;2023-01-31T09:36:44;100592.53;;;6.31;69.32
46129;BME280;31860;45.186;5.790;2023-01-31T09:39:11;100597.81;;;6.34;68.89
46129;BME280;31860;45.186;5.790;2023-01-31T09:41:44;100582.44;;;6.38;69.18
46129;BME280;31860;45.186;5.790;2023-01-31T09:44:15;100592.19;;;6.44;68.86
46129;BME280;31860;45.186;5.790;2023-01-31T09:46:50;100589.78;;;6.48;68.07
46129;BME280;31860;45.186;5.790;2023-01-31T09:49:27;100595.97;;;6.52;67.62
46129;BME280;31860;45.186;5.790;2023-01-31T09:51:59;100592.66;;;6.56;68.30
46129;BME280;31860;45.186;5.790;2023-01-31T09:54:30;100594.41;;;6.57;68.25
46129;BME280;31860;45.186;5.790;2023-01-31T09:57:03;100594.47;;;6.58;67.86
46129;BME280;31860;45.186;5.790;2023-01-31T09:59:41;100596.34;;;6.62;68.03
46129;BME280;31860;45.186;5.790;2023-01-31T10:07:33;100582.91;;;6.72;67.76
46129;BME280;31860;45.186;5.790;2023-01-31T10:12:54;100586.69;;;6.81;68.16
46129;BME280;31860;45.186;5.790;2023-01-31T10:15:30;100583.44;;;6.86;67.65
46129;BME280;31860;45.186;5.790;2023-01-31T10:18:01;100580.09;;;6.90;67.82
46129;BME280;31860;45.186;5.790;2023-01-31T10:20:43;100576.72;;;6.93;67.70
46129;BME280;31860;45.186;5.790;2023-01-31T10:23:55;100565.69;;;6.98;67.58
46129;BME280;31860;45.186;5.790;2023-01-31T10:26:26;100558.13;;;7.04;67.89
46129;BME280;31860;45.186;5.790;2023-01-31T10:29:15;100568.81;;;7.13;67.59
46129;BME280;31860;45.186;5.790;2023-01-31T10:31:52;100564.78;;;7.21;66.95
46129;BME280;31860;45.186;5.790;2023-01-31T10:37:01;100566.50;;;7.44;66.04
46129;BME280;31860;45.186;5.790;2023-01-31T10:39:31;100564.28;;;7.56;65.99
46129;BME280;31860;45.186;5.790;2023-01-31T10:47:53;100563.84;;;7.95;64.06
46129;BME280;31860;45.186;5.790;2023-01-31T10:50:29;100566.00;;;8.08;63.29
46129;BME280;31860;45.186;5.790;2023-01-31T10:53:30;100560.38;;;8.22;62.12
46129;BME280;31860;45.186;5.790;2023-01-31T10:56:06;100555.53;;;8.31;61.46
46129;BME280;31860;45.186;5.790;2023-01-31T10:58:33;100548.84;;;8.41;60.91
46129;BME280;31860;45.186;5.790;2023-01-31T11:00:59;100536.91;;;8.47;60.26
46129;BME280;31860;45.186;5.790;2023-01-31T11:03:26;100534.59;;;8.56;59.74
46129;BME280;31860;45.186;5.790;2023-01-31T11:05:54;100530.44;;;8.63;59.94
46129;BME280;31860;45.186;5.790;2023-01-31T11:10:55;100514.19;;;8.72;59.18
46129;BME280;31860;45.186;5.790;2023-01-31T11:13:21;100513.47;;;8.77;59.28
46129;BME280;31860;45.186;5.790;2023-01-31T11:15:51;100510.06;;;8.78;59.10
46129;BME280;31860;45.186;5.790;2023-01-31T11:18:30;100495.28;;;8.79;58.60
46129;BME280;31860;45.186;5.790;2023-01-31T11:20:58;100497.13;;;8.83;58.90
46129;BME280;31860;45.186;5.790;2023-01-31T11:23:27;100482.44;;;8.85;58.62
46129;BME280;31860;45.186;5.790;2023-01-31T11:25:54;100487.78;;;8.89;58.55
46129;BME280;31860;45.186;5.790;2023-01-31T11:28:37;100471.22;;;8.87;57.31
46129;BME280;31860;45.186;5.790;2023-01-31T11:31:05;100455.56;;;8.86;57.83
46129;BME280;31860;45.186;5.790;2023-01-31T11:36:16;100459.88;;;8.85;57.42
46129;BME280;31860;45.186;5.790;2023-01-31T11:38:49;100461.63;;;8.86;57.44
46129;BME280;31860;45.186;5.790;2023-01-31T11:41:32;100446.00;;;8.86;57.18
46129;BME280;31860;45.186;5.790;2023-01-31T11:44:18;100443.34;;;8.85;56.77
46129;BME280;31860;45.186;5.790;2023-01-31T11:49:12;100435.53;;;8.85;57.22
46129;BME280;31860;45.186;5.790;2023-01-31T11:51:38;100432.13;;;8.86;57.15
46129;BME280;31860;45.186;5.790;2023-01-31T11:54:05;100424.34;;;8.87;57.25
46129;BME280;31860;45.186;5.790;2023-01-31T11:56:34;100421.78;;;8.90;57.05
46129;BME280;31860;45.186;5.790;2023-01-31T11:59:04;100428.88;;;8.96;56.98
46129;BME280;31860;45.186;5.790;2023-01-31T12:01:34;100416.03;;;9.02;56.75
46129;BME280;31860;45.186;5.790;2023-01-31T12:04:05;100415.41;;;9.10;57.13
46129;BME280;31860;45.186;5.790;2023-01-31T12:08:59;100401.16;;;9.32;56.78
46129;BME280;31860;45.186;5.790;2023-01-31T12:11:28;100404.03;;;9.42;56.60
46129;BME280;31860;45.186;5.790;2023-01-31T12:16:33;100395.91;;;9.66;56.12
46129;BME280;31860;45.186;5.790;2023-01-31T12:19:08;100376.13;;;9.77;55.53
46129;BME280;31860;45.186;5.790;2023-01-31T12:24:47;100366.31;;;10.04;55.40
46129;BME280;31860;45.186;5.790;2023-01-31T12:41:45;100337.41;;;10.83;53.70
46129;BME280;31860;45.186;5.790;2023-01-31T12:50:04;100327.53;;;11.18;52.16
46129;BME280;31860;45.186;5.790;2023-01-31T13:01:15;100324.78;;;11.67;51.29
46129;BME280;31860;45.186;5.790;2023-01-31T13:06:50;100313.78;;;11.92;50.95
46129;BME280;31860;45.186;5.790;2023-01-31T13:09:22;100306.91;;;12.00;50.72
46129;BME280;31860;45.186;5.790;2023-01-31T13:12:12;100309.72;;;12.14;50.43
46129;BME280;31860;45.186;5.790;2023-01-31T13:14:42;100291.50;;;12.26;50.53
46129;BME280;31860;45.186;5.790;2023-01-31T13:17:12;100280.25;;;12.36;50.14
46129;BME280;31860;45.186;5.790;2023-01-31T13:19:45;100279.50;;;12.46;49.79
46129;BME280;31860;45.186;5.790;2023-01-31T13:22:20;100290.97;;;12.59;49.39
46129;BME280;31860;45.186;5.790;2023-01-31T13:24:53;100280.63;;;12.72;49.22
46129;BME280;31860;45.186;5.790;2023-01-31T13:27:32;100280.69;;;12.84;48.82
46129;BME280;31860;45.186;5.790;2023-01-31T13:30:16;100278.19;;;12.93;48.23
46129;BME280;31860;45.186;5.790;2023-01-31T13:32:48;100263.34;;;13.01;48.41
46129;BME280;31860;45.186;5.790;2023-01-31T13:35:36;100271.38;;;13.16;47.43
46129;BME280;31860;45.186;5.790;2023-01-31T13:38:10;100257.44;;;13.23;47.67
46129;BME280;31860;45.186;5.790;2023-01-31T13:40:52;100261.84;;;13.29;46.73
46129;BME280;31860;45.186;5.790;2023-01-31T13:43:19;100274.13;;;13.36;47.66
46129;BME280;31860;45.186;5.790;2023-01-31T13:46:01;100269.84;;;13.47;46.54
46129;BME280;31860;45.186;5.790;2023-01-31T13:48:35;100270.72;;;13.51;46.56
46129;BME280;31860;45.186;5.790;2023-01-31T13:53:55;100264.63;;;13.52;46.43
46129;BME280;31860;45.186;5.790;2023-01-31T13:56:26;100267.22;;;13.49;46.31
46129;BME280;31860;45.186;5.790;2023-01-31T13:58:54;100271.56;;;13.48;46.60
46129;BME280;31860;45.186;5.790;2023-01-31T14:01:25;100268.09;;;13.46;46.18
46129;BME280;31860;45.186;5.790;2023-01-31T14:09:30;100265.34;;;13.28;44.88
46129;BME280;31860;45.186;5.790;2023-01-31T14:11:58;100259.16;;;13.20;46.15
46129;BME280;31860;45.186;5.790;2023-01-31T14:17:11;100259.03;;;13.05;45.10
46129;BME280;31860;45.186;5.790;2023-01-31T14:40:06;100274.22;;;12.43;46.63
46129;BME280;31860;45.186;5.790;2023-01-31T14:50:28;100272.19;;;12.16;46.66
46129;BME280;31860;45.186;5.790;2023-01-31T14:53:09;100274.72;;;12.09;46.81
46129;BME280;31860;45.186;5.790;2023-01-31T14:58:26;100274.56;;;11.95;47.11
46129;BME280;31860;45.186;5.790;2023-01-31T15:00:59;100276.22;;;11.89;47.03
46129;BME280;31860;45.186;5.790;2023-01-31T15:06:08;100281.34;;;11.78;47.14
46129;BME280;31860;45.186;5.790;2023-01-31T15:08:49;100280.38;;;11.73;47.15
46129;BME280;31860;45.186;5.790;2023-01-31T15:13:53;100275.84;;;11.62;47.64
46129;BME280;31860;45.186;5.790;2023-01-31T15:19:00;100283.56;;;11.53;47.96
46129;BME280;31860;45.186;5.790;2023-01-31T15:21:33;100286.97;;;11.47;48.34
46129;BME280;31860;45.186;5.790;2023-01-31T15:24:01;100281.72;;;11.44;48.26
46129;BME280;31860;45.186;5.790;2023-01-31T15:26:30;100279.91;;;11.38;48.24
46129;BME280;31860;45.186;5.790;2023-01-31T15:28:57;100278.06;;;11.33;48.63
46129;BME280;31860;45.186;5.790;2023-01-31T15:31:37;100285.81;;;11.27;48.71
46129;BME280;31860;45.186;5.790;2023-01-31T15:34:13;100289.16;;;11.18;49.04
46129;BME280;31860;45.186;5.790;2023-01-31T15:37:13;100287.28;;;11.08;49.12